Time;durP1;ratioP1;P1;durP2;ratioP2;P2;SDS_P1;SDS_P2;PMS_P1;PMS_P2;Temp;Humidity;BMP_temperature;BMP_pressure;BME280_temperature;BME280_humidity;BME280_pressure;Samples;Min_cycle;Max_cycle;Signal;HPM_P1;HPM_P2
2023/10/31 00:01:30;;;;;;;1.37;1.00;;;14.30;99.90;;;14.45;68.14;97125.38;4975913;28;123134;-90
2023/10/31 00:03:57;;;;;;;1.50;0.90;;;15.60;99.90;;;14.44;68.30;97125.78;4977794;28;123036;-90
2023/10/31 00:06:24;;;;;;;0.93;0.70;;;14.20;99.90;;;14.41;68.32;97121.78;4977819;28;113547;-88
2023/10/31 00:08:51;;;;;;;1.10;0.90;;;14.20;99.90;;;14.40;68.33;97125.75;4977426;28;113476;-90
2023/10/31 00:11:17;;;;;;;1.57;0.90;;;14.10;99.90;;;14.40;68.04;97136.88;4979109;28;123888;-91
2023/10/31 00:13:45;;;;;;;0.90;0.73;;;14.10;99.90;;;14.40;68.55;97152.72;4996036;28;122200;-87
2023/10/31 00:16:11;;;;;;;1.00;0.90;;;14.20;99.90;;;14.35;68.43;97149.09;4968490;28;114132;-89
2023/10/31 00:18:38;;;;;;;3.30;0.87;;;14.20;99.90;;;14.34;68.58;97164.16;4970547;28;113903;-90
2023/10/31 00:21:06;;;;;;;2.43;1.00;;;14.10;99.90;;;14.32;69.00;97162.97;4969714;28;123219;-93
2023/10/31 00:23:44;;;;;;;1.00;0.80;;;14.10;99.90;;;14.28;68.84;97156.53;4964579;28;123734;-90
2023/10/31 00:26:12;;;;;;;1.00;0.80;;;14.00;99.90;;;14.27;69.07;97152.19;4967767;28;114497;-90
2023/10/31 00:28:44;;;;;;;0.90;0.77;;;14.00;99.90;;;14.26;69.26;97158.88;4971970;28;114734;-89
2023/10/31 00:31:11;;;;;;;2.90;0.80;;;15.10;99.90;;;14.25;69.21;97157.31;4990108;28;124371;-90
2023/10/31 00:33:38;;;;;;;1.10;0.80;;;14.10;99.90;;;14.25;69.20;97168.41;4923771;28;121609;-90
2023/10/31 00:36:06;;;;;;;0.90;0.80;;;14.10;99.90;;;14.24;69.27;97167.63;4942253;28;112743;-89
2023/10/31 00:38:33;;;;;;;1.47;1.00;;;14.00;99.90;;;14.21;69.08;97176.72;4922802;28;113006;-90
2023/10/31 00:41:02;;;;;;;1.20;0.80;;;14.00;99.90;;;14.19;69.06;97187.38;4938978;28;123052;-90
2023/10/31 00:43:29;;;;;;;0.90;0.70;;;14.00;99.90;;;14.18;69.28;97176.66;4932300;28;122555;-90
2023/10/31 00:45:55;;;;;;;0.90;0.70;;;14.00;99.90;;;14.17;69.20;97180.59;4943352;28;113436;-90
2023/10/31 00:48:22;;;;;;;1.93;0.70;;;16.40;99.90;;;14.17;69.00;97175.84;4936480;28;113945;-88
2023/10/31 00:50:48;;;;;;;0.90;0.70;;;14.00;99.90;;;14.18;68.94;97185.78;4948829;28;123627;-89
2023/10/31 00:53:48;;;;;;;0.93;0.70;;;13.90;99.90;;;14.12;68.45;97182.53;4922709;28;122125;-90
2023/10/31 00:56:15;;;;;;;2.03;0.80;;;13.90;99.90;;;14.10;67.68;97204.34;4947562;28;114175;-91
2023/10/31 00:58:44;;;;;;;1.00;0.70;;;13.90;99.90;;;14.06;67.30;97194.34;4933064;28;112168;-90
2023/10/31 01:01:11;;;;;;;0.90;0.70;;;11.80;99.90;;;14.04;66.99;97200.25;4960884;28;124077;-91
2023/10/31 01:03:38;;;;;;;1.33;0.80;;;14.10;99.90;;;14.03;66.53;97204.22;4950506;28;123712;-89
2023/10/31 01:06:08;;;;;;;2.30;0.80;;;13.90;99.90;;;14.00;66.42;97207.75;4936717;28;116106;-89
2023/10/31 01:08:34;;;;;;;2.87;0.80;;;13.70;99.90;;;13.96;66.02;97195.00;4934532;28;114672;-89
2023/10/31 01:11:01;;;;;;;1.00;0.80;;;13.80;99.90;;;13.96;66.04;97203.31;4952502;28;123568;-91
2023/10/31 01:13:33;;;;;;;1.67;0.80;;;13.70;99.90;;;13.95;65.84;97199.75;5000727;28;123988;-89
2023/10/31 01:16:00;;;;;;;1.60;0.80;;;13.70;99.80;;;13.97;65.77;97193.78;4997764;28;114510;-92
2023/10/31 01:18:30;;;;;;;1.43;0.80;;;13.70;99.80;;;13.95;65.70;97194.19;4967907;28;113438;-89
2023/10/31 01:20:58;;;;;;;1.30;0.73;;;11.80;98.90;;;13.97;65.58;97196.56;5004241;28;123918;-89
2023/10/31 01:23:30;;;;;;;1.07;0.80;;;13.80;99.80;;;13.98;65.49;97204.53;5002585;28;124197;-89
2023/10/31 01:25:57;;;;;;;1.13;0.87;;;13.80;99.70;;;13.99;65.75;97208.91;5000365;28;114792;-89
2023/10/31 01:28:27;;;;;;;1.57;0.70;;;13.80;99.70;;;13.99;65.41;97222.00;4996380;28;112049;-89
2023/10/31 01:30:56;;;;;;;1.10;0.80;;;13.80;99.60;;;13.98;65.25;97229.53;4972614;28;123161;-90
2023/10/31 01:33:24;;;;;;;1.00;0.70;;;13.80;99.60;;;13.97;65.01;97229.91;4960027;28;121890;-90
2023/10/31 01:35:58;;;;;;;1.30;0.80;;;13.80;99.50;;;13.96;64.82;97237.44;4984831;28;114121;-93
2023/10/31 01:38:24;;;;;;;2.20;0.87;;;13.80;99.40;;;13.95;64.91;97233.06;4968105;28;113960;-89
2023/10/31 01:40:55;;;;;;;3.07;1.10;;;13.80;99.80;;;13.96;64.97;97244.97;4978117;28;123931;-89
2023/10/31 01:43:38;;;;;;;1.00;0.80;;;13.80;99.20;;;13.91;64.41;97246.06;4982270;28;123389;-90
2023/10/31 01:46:05;;;;;;;1.00;0.80;;;13.80;99.10;;;13.88;64.44;97249.59;4986743;28;112597;-88
2023/10/31 01:48:34;;;;;;;1.20;0.80;;;13.70;99.00;;;13.85;64.33;97239.25;4981809;28;113426;-90
2023/10/31 01:51:04;;;;;;;1.30;0.90;;;13.70;99.00;;;13.83;64.54;97242.38;4982919;28;124132;-91
2023/10/31 01:53:42;;;;;;;2.40;0.90;;;13.70;99.00;;;13.80;64.57;97248.69;4971204;28;123492;-90
2023/10/31 01:56:21;;;;;;;1.30;0.80;;;13.60;99.00;;;13.76;64.63;97252.59;4984196;28;114999;-91
2023/10/31 01:58:52;;;;;;;5.00;1.00;;;13.70;99.00;;;13.71;64.58;97259.25;5004739;28;113808;-89
2023/10/31 02:01:22;;;;;;;1.30;0.70;;;13.50;98.90;;;13.69;64.66;97256.84;4969807;28;123498;-90
2023/10/31 02:03:48;;;;;;;1.43;0.90;;;13.60;99.00;;;13.66;64.38;97271.44;4955311;28;122047;-89
2023/10/31 02:06:15;;;;;;;1.30;0.90;;;15.90;99.90;;;13.63;64.10;97266.66;4983653;28;115250;-90
2023/10/31 02:08:47;;;;;;;1.00;0.83;;;13.70;98.90;;;13.61;64.18;97277.31;4986139;28;114596;-89
2023/10/31 02:11:44;;;;;;;0.97;0.77;;;13.40;98.70;;;13.59;63.95;97279.66;4951490;28;121900;-90
2023/10/31 02:14:26;;;;;;;1.00;0.90;;;13.50;98.70;;;13.54;63.89;97274.44;4958891;28;123720;-91
2023/10/31 02:16:53;;;;;;;1.30;0.87;;;13.40;98.60;;;13.52;64.13;97285.09;4966165;28;113696;-92
2023/10/31 02:19:22;;;;;;;1.30;0.80;;;13.40;98.80;;;13.52;63.99;97284.28;4968105;28;113678;-89
2023/10/31 02:21:49;;;;;;;1.00;0.80;;;11.10;97.60;;;13.54;63.87;97285.53;4954063;28;123573;-89
2023/10/31 02:24:20;;;;;;;1.37;1.03;;;13.30;98.60;;;13.54;63.41;97268.88;5002129;28;121515;-90
2023/10/31 02:26:46;;;;;;;0.90;0.70;;;14.60;98.90;;;13.55;63.38;97283.56;4968200;28;113652;-89
2023/10/31 02:29:15;;;;;;;1.70;0.97;;;16.10;99.60;;;13.53;63.51;97289.47;4965381;28;113403;-92
2023/10/31 02:32:10;;;;;;;2.37;1.10;;;15.10;99.10;;;13.50;63.63;97294.94;4985415;28;123886;-92
2023/10/31 02:34:37;;;;;;;1.10;0.83;;;14.90;99.00;;;13.48;63.68;97296.09;4979442;28;123058;-89
2023/10/31 02:37:33;;;;;;;1.00;0.80;;;13.30;98.40;;;13.45;63.65;97304.38;4968648;28;114105;-91
2023/10/31 02:40:03;;;;;;;2.63;1.10;;;13.30;98.30;;;13.41;63.68;97309.88;4980008;28;114029;-90
2023/10/31 02:43:02;;;;;;;1.10;0.90;;;13.30;98.30;;;13.40;63.71;97294.38;5020756;28;123745;-92
2023/10/31 02:45:41;;;;;;;1.00;0.80;;;13.30;98.30;;;13.37;63.87;97297.88;4986932;28;123683;-91
2023/10/31 02:48:10;;;;;;;1.97;1.07;;;13.30;98.40;;;13.37;63.91;97297.09;4973455;28;113360;-90
2023/10/31 02:50:39;;;;;;;1.00;0.83;;;12.40;98.00;;;13.39;63.80;97300.31;4961307;28;112858;-89
2023/10/31 02:53:26;;;;;;;7.03;1.03;;;13.20;98.70;;;13.36;64.27;97298.28;4983762;28;124629;-90
2023/10/31 02:56:47;;;;;;;1.83;0.90;;;10.90;97.70;;;13.30;64.39;97314.41;4989626;28;123169;-91
2023/10/31 02:59:22;;;;;;;1.30;0.90;;;13.20;98.60;;;13.26;64.53;97313.53;4991799;28;115474;-90
2023/10/31 03:02:01;;;;;;;2.17;1.00;;;13.10;98.60;;;13.23;64.67;97323.34;4990563;28;115029;-90
2023/10/31 03:05:28;;;;;;;1.30;0.80;;;13.10;98.70;;;13.17;64.75;97319.28;4975304;28;123690;-90
2023/10/31 03:15:03;;;;;;;1.20;0.90;;;12.90;98.80;;;13.07;65.27;97328.19;4998821;28;114953;-92
2023/10/31 06:06:03;;;;;;;1.30;1.00;;;12.90;98.40;;;13.04;63.63;97465.56;4991937;28;114599;-90
2023/10/31 06:13:21;;;;;;;1.30;1.10;;;10.20;97.10;;;12.87;63.57;97457.66;4900580;28;124779;-90
2023/10/31 06:16:50;;;;;;;1.67;0.90;;;12.70;98.10;;;12.80;63.66;97463.03;4859395;29;113312;-89
2023/10/31 06:19:28;;;;;;;1.53;1.00;;;12.60;98.00;;;12.77;63.52;97481.19;4820114;29;113479;-89
2023/10/31 06:34:07;;;;;;;1.10;1.00;;;12.20;97.60;;;12.63;63.26;97485.56;672350;22;96520;-87
2023/10/31 07:13:07;;;;;;;1.40;1.13;;;12.70;97.60;;;13.01;62.43;97552.25;4991185;28;124814;-89
2023/10/31 07:15:41;;;;;;;1.30;1.10;;;12.70;97.60;;;13.03;62.35;97544.38;4958682;28;114427;-91
2023/10/31 07:19:00;;;;;;;2.53;0.87;;;12.80;97.60;;;13.04;62.09;97553.50;4905585;28;113733;-89
2023/10/31 07:21:41;;;;;;;1.40;0.90;;;14.80;98.40;;;13.04;61.80;97561.81;4886950;28;124975;-89
2023/10/31 07:25:19;;;;;;;1.47;0.90;;;12.80;97.50;;;12.98;61.89;97557.72;4904511;28;122858;-89
2023/10/31 07:28:34;;;;;;;3.43;1.03;;;10.50;96.40;;;12.95;61.65;97552.88;4863681;28;114105;-90
2023/10/31 07:31:42;;;;;;;2.10;1.03;;;14.60;98.10;;;12.90;61.85;97555.94;4877908;28;114698;-89
2023/10/31 07:34:42;;;;;;;3.43;1.00;;;11.90;97.00;;;12.89;62.07;97562.63;4847442;29;123973;-89
2023/10/31 07:37:36;;;;;;;2.00;1.40;;;12.70;97.40;;;12.92;62.17;97561.91;4878723;28;122871;-90
2023/10/31 07:40:33;;;;;;;8.63;1.30;;;12.60;97.40;;;12.95;62.04;97563.94;4825601;29;112483;-90
2023/10/31 07:43:01;;;;;;;1.57;1.00;;;12.70;97.40;;;12.97;61.75;97567.19;4807050;29;112567;-89
2023/10/31 07:46:03;;;;;;;2.10;1.00;;;11.30;96.80;;;12.98;62.00;97575.16;4803712;29;122477;-90
2023/10/31 07:49:09;;;;;;;4.13;1.60;;;12.70;97.30;;;12.96;61.64;97576.69;4803952;29;122369;-89
2023/10/31 07:52:16;;;;;;;3.23;1.03;;;12.70;97.30;;;12.96;61.80;97576.69;4817728;29;114310;-89
2023/10/31 07:54:57;;;;;;;2.10;1.20;;;12.70;97.30;;;12.99;62.05;97585.06;4769491;29;112403;-89
2023/10/31 07:57:58;;;;;;;1.67;1.10;;;12.70;97.40;;;13.04;62.01;97595.09;4743469;29;122515;-89
2023/10/31 08:00:45;;;;;;;2.60;1.00;;;12.70;97.40;;;13.07;62.06;97597.16;4775757;29;123581;-89
2023/10/31 08:03:18;;;;;;;3.00;0.87;;;12.80;97.40;;;13.08;61.94;97593.19;4760049;29;114806;-88
2023/10/31 08:06:18;;;;;;;1.40;1.10;;;12.80;97.40;;;13.06;61.83;97584.47;4768011;29;114332;-89
2023/10/31 08:09:42;;;;;;;4.20;1.33;;;12.80;97.30;;;13.09;62.00;97597.59;4776997;29;121702;-90
2023/10/31 08:12:11;;;;;;;2.70;1.10;;;12.80;97.30;;;13.12;61.85;97591.34;4794065;29;123778;-90
2023/10/31 08:15:04;;;;;;;1.83;1.00;;;12.80;97.40;;;13.14;61.87;97591.78;4744891;29;113648;-89
2023/10/31 08:17:56;;;;;;;2.20;1.13;;;12.80;97.40;;;13.20;61.73;97595.09;4819124;29;112319;-88
2023/10/31 08:20:36;;;;;;;2.47;1.03;;;11.30;96.80;;;13.26;61.75;97596.44;4819334;29;123045;-90
2023/10/31 08:23:05;;;;;;;1.77;1.10;;;12.80;97.50;;;13.28;61.70;97596.09;4800617;29;122026;-89
2023/10/31 08:26:00;;;;;;;3.10;1.20;;;12.90;97.40;;;13.32;61.55;97608.06;4803498;29;114268;-90
2023/10/31 08:28:30;;;;;;;6.20;1.40;;;13.00;97.40;;;13.34;61.59;97605.75;4816313;29;112552;-92
2023/10/31 08:31:00;;;;;;;2.10;1.00;;;13.00;97.40;;;13.38;61.57;97609.41;4859163;29;124008;-89
2023/10/31 08:33:31;;;;;;;2.00;1.13;;;13.00;97.30;;;13.39;61.42;97608.25;4843497;29;123398;-90
2023/10/31 08:36:09;;;;;;;1.40;0.90;;;13.00;97.30;;;13.42;61.31;97615.84;4850885;29;112798;-91
2023/10/31 08:38:49;;;;;;;1.90;1.10;;;13.10;97.30;;;13.45;61.54;97620.66;4850333;29;112626;-91
2023/10/31 08:41:19;;;;;;;3.10;1.17;;;14.30;97.80;;;13.50;61.44;97620.41;4850195;29;122749;-90
2023/10/31 08:43:53;;;;;;;3.60;1.33;;;13.20;97.30;;;13.57;60.90;97631.66;4823667;29;123500;-91
2023/10/31 08:46:29;;;;;;;2.57;1.10;;;13.20;97.20;;;13.63;60.88;97638.53;4842991;29;112611;-91
2023/10/31 08:49:27;;;;;;;2.60;1.10;;;13.30;97.10;;;13.63;60.57;97630.22;4849673;29;112668;-91
2023/10/31 08:51:53;;;;;;;1.87;1.10;;;13.30;97.00;;;13.65;60.66;97624.31;4786756;29;123723;-91
2023/10/31 08:54:26;;;;;;;2.83;1.10;;;13.20;96.90;;;13.70;60.77;97629.56;4758266;29;122847;-91
2023/10/31 08:56:53;;;;;;;4.67;1.20;;;13.40;97.00;;;13.73;60.11;97630.81;4771111;29;114101;-90
2023/10/31 08:59:20;;;;;;;3.40;1.20;;;13.60;96.80;;;13.76;59.68;97622.59;4772050;29;113781;-92
2023/10/31 09:01:57;;;;;;;2.50;1.50;;;13.40;96.50;;;13.80;59.45;97630.97;4774388;29;123552;-91
2023/10/31 09:04:28;;;;;;;2.43;1.30;;;11.50;95.60;;;13.82;59.31;97623.09;4752017;29;123408;-92
2023/10/31 09:07:02;;;;;;;2.27;1.27;;;13.40;96.20;;;13.81;59.45;97611.19;4774776;29;112732;-91
2023/10/31 09:09:31;;;;;;;3.03;1.00;;;13.50;96.20;;;13.84;58.96;97615.22;4788719;29;112255;-90
2023/10/31 09:12:07;;;;;;;2.13;1.10;;;13.50;96.30;;;13.88;59.14;97638.31;4759717;29;121708;-90
2023/10/31 09:14:36;;;;;;;1.53;0.80;;;13.60;96.10;;;13.90;58.64;97642.31;4777286;29;123760;-89
2023/10/31 09:17:03;;;;;;;2.60;1.37;;;15.00;96.70;;;13.94;58.65;97631.28;4772142;29;114059;-90
2023/10/31 09:19:30;;;;;;;2.20;1.00;;;13.60;95.80;;;13.97;58.62;97635.31;4771690;29;114729;-90
2023/10/31 09:22:05;;;;;;;3.80;1.00;;;13.60;95.80;;;14.01;58.33;97634.22;4758972;29;123049;-90
2023/10/31 09:24:40;;;;;;;1.67;1.00;;;13.60;95.90;;;14.07;58.16;97652.22;4804735;29;121609;-91
2023/10/31 09:27:06;;;;;;;1.80;1.27;;;13.70;95.80;;;14.09;58.42;97638.78;4806501;29;112518;-90
2023/10/31 09:29:40;;;;;;;2.80;1.20;;;13.70;95.80;;;14.12;58.17;97646.38;4866222;28;114148;-90
2023/10/31 09:32:09;;;;;;;1.77;1.10;;;13.80;95.60;;;14.14;57.76;97635.72;4884748;28;123733;-91
2023/10/31 09:34:36;;;;;;;4.40;1.37;;;13.80;95.50;;;14.17;57.72;97645.28;4888772;28;121594;-90
2023/10/31 09:37:06;;;;;;;1.57;0.93;;;15.30;96.20;;;14.20;57.35;97627.88;4888465;28;114165;-91
2023/10/31 09:39:33;;;;;;;2.50;1.20;;;13.80;95.20;;;14.20;57.40;97624.31;4880861;28;112819;-92
2023/10/31 09:42:05;;;;;;;1.40;1.10;;;13.80;95.20;;;14.22;57.54;97630.31;4901494;28;123283;-89
2023/10/31 09:44:43;;;;;;;5.00;1.20;;;14.80;95.60;;;14.23;57.09;97643.03;4853683;28;122922;-90
2023/10/31 09:47:17;;;;;;;2.60;1.30;;;13.90;95.00;;;14.20;57.20;97649.31;4876599;28;113985;-93
2023/10/31 09:49:50;;;;;;;2.70;1.00;;;13.90;95.00;;;14.18;57.04;97637.75;4903366;28;114273;-90
2023/10/31 09:52:23;;;;;;;2.93;1.30;;;14.40;95.10;;;14.19;57.03;97636.59;4864587;28;122335;-90
2023/10/31 09:54:52;;;;;;;4.10;1.43;;;13.90;95.00;;;14.22;57.30;97633.09;4901046;28;123372;-90
2023/10/31 09:57:18;;;;;;;3.63;1.00;;;14.90;95.50;;;14.26;57.34;97623.63;4913947;28;113761;-91
2023/10/31 09:59:45;;;;;;;4.90;1.20;;;14.00;95.00;;;14.31;56.98;97634.47;4922972;28;112552;-90
2023/10/31 10:02:18;;;;;;;2.57;1.40;;;14.00;95.00;;;14.34;56.84;97621.81;4903343;28;122383;-90
2023/10/31 10:04:47;;;;;;;2.80;1.00;;;15.30;95.40;;;14.36;57.09;97619.47;4910969;28;122967;-90
2023/10/31 10:07:19;;;;;;;6.50;1.50;;;14.00;94.80;;;14.43;56.66;97619.63;4937652;28;114399;-91
2023/10/31 10:09:52;;;;;;;6.23;1.70;;;14.40;95.00;;;14.46;56.63;97630.00;4942446;28;113219;-89
2023/10/31 10:12:21;;;;;;;2.20;1.27;;;14.10;94.70;;;14.44;56.69;97628.75;4924092;28;122518;-90
2023/10/31 10:14:49;;;;;;;6.20;1.30;;;14.10;94.70;;;14.42;56.53;97629.13;4957995;28;122168;-90
2023/10/31 10:17:22;;;;;;;6.90;1.30;;;16.00;95.50;;;14.39;56.90;97627.06;4938069;28;114807;-90
2023/10/31 10:20:11;;;;;;;2.33;1.30;;;15.60;95.40;;;14.37;56.94;97623.84;4939576;28;113533;-90
2023/10/31 10:22:44;;;;;;;3.10;1.73;;;14.10;94.80;;;14.40;57.19;97625.91;4939336;28;122755;-90
2023/10/31 10:25:17;;;;;;;7.90;1.30;;;14.10;94.90;;;14.42;57.39;97642.22;4944775;28;122804;-91
2023/10/31 10:27:51;;;;;;;4.23;1.30;;;14.00;94.90;;;14.46;57.30;97635.56;4882435;28;112606;-90
2023/10/31 10:30:21;;;;;;;3.60;1.10;;;14.20;95.10;;;14.52;57.56;97633.28;4890254;28;115325;-90
2023/10/31 10:32:51;;;;;;;7.17;1.40;;;16.10;96.00;;;14.60;57.38;97642.59;4868283;28;122681;-91
2023/10/31 10:35:19;;;;;;;2.27;1.03;;;14.30;95.20;;;14.63;57.07;97655.75;4883528;28;122301;-91
2023/10/31 10:37:52;;;;;;;3.30;1.37;;;14.30;95.00;;;14.63;57.04;97655.75;4892228;28;114242;-89
2023/10/31 10:40:26;;;;;;;2.67;1.60;;;16.60;96.00;;;14.62;56.97;97659.72;4872855;28;113745;-91
2023/10/31 10:42:59;;;;;;;3.63;1.50;;;14.10;94.80;;;14.56;57.39;97651.69;4880291;28;122984;-90
2023/10/31 10:45:29;;;;;;;3.47;1.27;;;15.10;95.30;;;14.52;57.51;97650.78;4861526;28;123447;-90
2023/10/31 10:48:02;;;;;;;3.13;1.43;;;14.30;95.10;;;14.51;57.93;97653.94;4863072;28;113580;-90
2023/10/31 10:50:33;;;;;;;7.10;1.17;;;14.30;95.20;;;14.50;57.83;97661.44;4886642;28;113516;-91
2023/10/31 10:53:14;;;;;;;2.93;1.27;;;14.30;95.20;;;14.49;57.76;97665.41;4864396;28;123685;-92
2023/10/31 10:56:00;;;;;;;2.70;1.10;;;14.30;95.20;;;14.49;57.93;97668.19;4884182;28;122709;-90
2023/10/31 10:59:01;;;;;;;4.30;1.30;;;14.30;95.20;;;14.52;57.84;97664.69;4896888;28;112409;-90
2023/10/31 11:01:28;;;;;;;1.93;1.23;;;14.30;95.20;;;14.55;57.68;97668.72;4933632;28;112693;-89
2023/10/31 11:03:55;;;;;;;4.60;1.30;;;15.10;95.60;;;14.61;57.63;97658.09;4924866;28;122725;-90
2023/10/31 11:06:23;;;;;;;3.23;1.23;;;14.30;95.70;;;14.66;57.57;97649.47;4942314;28;124176;-90
2023/10/31 11:08:53;;;;;;;1.97;1.10;;;15.60;95.70;;;14.74;57.50;97662.34;4936727;28;114742;-91
2023/10/31 11:11:23;;;;;;;2.23;1.00;;;14.40;95.10;;;14.81;57.19;97645.78;4922006;28;113613;-90
2023/10/31 11:13:51;;;;;;;3.20;1.17;;;14.50;95.20;;;14.86;57.35;97653.84;4907524;28;123503;-90
2023/10/31 11:16:30;;;;;;;3.80;1.33;;;15.90;95.70;;;14.91;57.09;97649.94;4928703;28;122400;-90
2023/10/31 11:19:00;;;;;;;2.90;1.30;;;16.00;95.70;;;14.95;56.85;97653.59;4933295;28;113535;-91
2023/10/31 11:21:31;;;;;;;1.60;0.97;;;14.60;95.00;;;15.00;57.00;97651.31;4963317;28;113156;-90
2023/10/31 11:24:03;;;;;;;3.93;1.27;;;15.90;95.50;;;15.01;56.56;97655.69;4941336;28;123210;-90
2023/10/31 11:26:52;;;;;;;3.33;1.50;;;14.70;94.80;;;15.02;56.43;97657.31;4932762;28;122770;-89
2023/10/31 11:29:18;;;;;;;3.67;1.03;;;14.70;94.70;;;15.04;56.54;97659.69;4912171;28;113178;-90
2023/10/31 11:31:45;;;;;;;2.70;1.17;;;14.70;94.90;;;15.06;56.39;97657.38;4954643;28;113763;-89
2023/10/31 11:34:12;;;;;;;2.27;1.10;;;14.70;94.70;;;15.09;56.52;97661.38;4941430;28;125645;-89
2023/10/31 11:36:41;;;;;;;3.10;1.10;;;14.70;94.70;;;15.12;56.23;97666.19;4934772;28;124082;-90
2023/10/31 11:39:17;;;;;;;3.53;1.20;;;14.70;95.00;;;15.14;56.52;97670.22;4953379;28;113357;-90
2023/10/31 11:41:58;;;;;;;2.80;1.20;;;15.30;94.90;;;15.20;56.81;97657.59;4920053;28;112693;-91
2023/10/31 11:44:28;;;;;;;3.93;1.17;;;14.90;94.70;;;15.25;56.48;97659.28;4923983;28;122291;-90
2023/10/31 11:46:59;;;;;;;2.47;1.20;;;14.90;94.80;;;15.28;56.22;97669.66;4921279;28;122036;-89
2023/10/31 11:49:50;;;;;;;3.17;1.47;;;14.90;94.70;;;15.30;56.26;97663.75;4950644;28;114307;-89
2023/10/31 11:52:18;;;;;;;2.93;1.20;;;15.00;94.70;;;15.33;56.13;97661.00;4944324;28;113990;-90
2023/10/31 11:54:45;;;;;;;2.77;1.13;;;15.00;94.70;;;15.39;56.33;97667.06;4957102;28;124032;-90
2023/10/31 11:57:28;;;;;;;5.13;1.43;;;17.00;95.60;;;15.43;56.22;97676.28;4927291;28;121752;-90
2023/10/31 11:59:55;;;;;;;4.10;1.10;;;16.70;95.40;;;15.48;56.17;97666.81;4940284;28;114556;-89
2023/10/31 12:02:23;;;;;;;2.10;1.10;;;15.20;94.70;;;15.51;56.01;97672.44;4943754;28;113087;-90
2023/10/31 12:04:50;;;;;;;3.10;1.73;;;15.20;94.70;;;15.54;56.19;97670.91;4940076;28;124139;-89
2023/10/31 12:07:18;;;;;;;1.47;0.93;;;15.10;94.50;;;15.54;55.70;97676.47;4940359;28;123743;-90
2023/10/31 12:09:53;;;;;;;1.07;0.80;;;15.20;94.50;;;15.53;55.55;97672.06;4944738;28;113201;-89
2023/10/31 12:12:32;;;;;;;2.03;1.00;;;15.10;94.30;;;15.53;55.66;97674.84;4958119;28;113987;-91
2023/10/31 12:15:09;;;;;;;1.40;0.93;;;15.10;94.30;;;15.53;55.71;97674.84;4931752;28;123154;-90
2023/10/31 12:17:40;;;;;;;1.80;1.00;;;15.20;94.30;;;15.56;55.79;97682.47;4943618;28;123542;-91
2023/10/31 12:20:08;;;;;;;2.47;1.20;;;14.30;93.90;;;15.58;55.54;97680.94;4940643;28;115413;-89
2023/10/31 12:22:40;;;;;;;1.87;1.00;;;15.20;94.30;;;15.60;55.71;97684.13;4942528;28;113691;-91
2023/10/31 12:25:08;;;;;;;1.90;1.00;;;15.30;94.40;;;15.61;55.52;97688.53;4920468;28;123186;-89
2023/10/31 12:27:50;;;;;;;2.40;1.03;;;15.30;94.20;;;15.62;55.50;97686.53;4957858;28;123003;-89
2023/10/31 12:30:20;;;;;;;2.40;1.20;;;15.30;94.20;;;15.61;55.35;97687.72;4952209;28;114410;-89
2023/10/31 12:32:59;;;;;;;1.27;0.80;;;15.30;94.10;;;15.59;55.07;97690.88;4925654;28;113111;-90
2023/10/31 12:35:26;;;;;;;1.60;1.00;;;16.00;94.30;;;15.57;55.18;97695.19;4943739;28;123330;-91
2023/10/31 12:37:55;;;;;;;2.00;1.20;;;15.30;94.00;;;15.60;55.22;97705.59;4969768;28;123393;-90
2023/10/31 12:40:25;;;;;;;3.80;1.30;;;15.30;94.10;;;15.58;55.48;97696.81;4936419;28;113612;-91
2023/10/31 12:42:52;;;;;;;1.23;1.07;;;15.30;94.10;;;15.58;55.71;97699.59;4922358;28;113503;-90
2023/10/31 12:45:19;;;;;;;1.40;1.10;;;15.30;94.30;;;15.57;55.96;97695.19;4943579;28;123178;-89
2023/10/31 12:48:06;;;;;;;3.33;1.53;;;15.30;94.40;;;15.57;56.06;97692.41;4949679;28;123951;-90
2023/10/31 12:50:34;;;;;;;3.43;1.20;;;15.30;94.40;;;15.58;56.03;97705.16;4951526;28;114490;-89
2023/10/31 12:53:03;;;;;;;1.83;1.23;;;15.30;94.50;;;15.55;56.23;97700.34;4944690;28;113216;-90
2023/10/31 12:55:31;;;;;;;3.43;1.27;;;17.00;95.30;;;15.52;56.46;97706.66;4936873;28;123356;-89
2023/10/31 12:57:58;;;;;;;3.37;1.20;;;15.30;94.60;;;15.49;56.80;97707.41;4921442;28;122998;-89
2023/10/31 13:00:36;;;;;;;4.67;1.47;;;15.20;94.70;;;15.43;56.95;97704.94;4934646;28;112392;-90
2023/10/31 13:03:05;;;;;;;2.50;1.20;;;15.20;94.80;;;15.40;57.00;97711.25;4967635;28;113950;-91
2023/10/31 13:05:39;;;;;;;3.27;1.00;;;15.20;94.80;;;15.39;57.24;97708.81;4948629;28;124100;-90
2023/10/31 13:08:16;;;;;;;4.43;1.23;;;15.10;94.80;;;15.35;57.03;97703.19;4931529;28;123802;-90
2023/10/31 13:10:43;;;;;;;1.23;1.10;;;15.10;94.90;;;15.40;57.30;97711.25;4938502;28;115443;-90
2023/10/31 13:13:14;;;;;;;2.57;1.20;;;15.20;95.00;;;15.41;57.30;97707.25;4915029;28;115810;-91
2023/10/31 13:15:49;;;;;;;1.23;1.00;;;15.20;95.10;;;15.45;57.29;97718.47;4945260;28;124400;-91
2023/10/31 13:18:16;;;;;;;2.23;1.00;;;15.20;95.10;;;15.46;57.32;97709.75;4922779;28;123593;-90
2023/10/31 13:20:43;;;;;;;3.67;1.30;;;16.10;95.50;;;15.53;57.41;97711.03;4936197;28;113589;-88
2023/10/31 13:23:10;;;;;;;3.37;1.17;;;15.20;95.20;;;15.54;57.52;97710.66;4911572;28;114435;-91
2023/10/31 13:25:36;;;;;;;4.20;0.90;;;15.30;95.20;;;15.53;57.57;97723.00;4925995;28;125072;-90
2023/10/31 13:28:07;;;;;;;2.10;1.00;;;16.60;95.80;;;15.52;57.23;97723.34;4930128;28;123860;-89
2023/10/31 13:30:33;;;;;;;1.40;0.90;;;15.30;95.20;;;15.48;57.24;97728.06;4939530;28;114212;-89
2023/10/31 13:33:01;;;;;;;1.10;0.80;;;16.00;95.50;;;15.46;57.30;97726.44;4929280;28;113153;-90
2023/10/31 13:35:27;;;;;;;2.23;0.90;;;15.20;95.00;;;15.44;57.34;97722.41;4925402;28;123203;-90
2023/10/31 13:37:53;;;;;;;1.70;1.10;;;16.10;95.50;;;15.46;57.51;97732.00;4921302;28;123710;-89
2023/10/31 13:40:21;;;;;;;1.67;1.10;;;15.20;95.10;;;15.47;57.14;97738.38;4924464;28;114896;-89
2023/10/31 13:42:49;;;;;;;4.33;1.60;;;15.20;95.00;;;15.46;57.15;97734.78;4938580;28;113943;-89
2023/10/31 13:45:15;;;;;;;1.10;0.80;;;15.20;94.90;;;15.48;57.15;97739.22;4929344;28;123810;-90
2023/10/31 13:47:45;;;;;;;2.70;1.20;;;15.20;94.90;;;15.44;56.86;97745.50;4931748;28;123875;-90
2023/10/31 13:50:14;;;;;;;1.80;1.10;;;15.20;95.00;;;15.41;56.73;97751.81;4916519;28;113998;-90
2023/10/31 13:52:40;;;;;;;1.27;0.90;;;15.20;94.90;;;15.42;57.02;97739.50;4902871;28;113614;-89
2023/10/31 13:55:07;;;;;;;2.30;1.07;;;16.20;95.50;;;15.42;57.35;97749.81;4932192;28;124098;-90
2023/10/31 13:57:38;;;;;;;1.30;0.70;;;15.20;95.00;;;15.42;57.22;97749.81;4932480;28;123583;-89
2023/10/31 14:00:08;;;;;;;1.37;0.93;;;15.10;95.10;;;15.42;57.30;97753.44;4904018;28;114320;-90
2023/10/31 14:02:35;;;;;;;2.00;1.10;;;15.20;95.00;;;15.48;57.34;97755.91;4921249;28;114708;-90
2023/10/31 14:05:05;;;;;;;1.23;1.00;;;15.20;95.10;;;15.50;57.44;97747.97;4916343;28;123086;-90
2023/10/31 14:07:32;;;;;;;1.50;1.10;;;15.30;95.10;;;15.52;57.25;97756.75;4917420;28;125267;-90
2023/10/31 14:10:03;;;;;;;1.00;0.80;;;15.30;95.10;;;15.56;57.49;97757.63;4946074;28;113439;-90
2023/10/31 14:12:35;;;;;;;3.33;1.00;;;15.20;95.10;;;15.57;57.07;97750.88;4913884;28;113452;-91
2023/10/31 14:15:02;;;;;;;1.30;0.80;;;15.30;95.10;;;15.59;57.03;97754.09;4932744;28;123287;-91
2023/10/31 14:17:36;;;;;;;1.83;1.00;;;15.30;95.00;;;15.59;56.83;97754.09;4916417;28;121729;-90
2023/10/31 14:20:04;;;;;;;1.87;0.93;;;15.30;95.00;;;15.63;57.04;97761.31;4895946;28;113463;-91
2023/10/31 14:22:31;;;;;;;2.53;1.17;;;15.30;95.00;;;15.63;57.06;97752.97;4877443;28;113856;-90
2023/10/31 14:24:58;;;;;;;3.33;1.03;;;15.40;95.10;;;15.68;57.18;97763.00;4877994;28;121808;-90
2023/10/31 14:27:31;;;;;;;2.20;0.97;;;15.40;95.10;;;15.72;57.05;97761.13;4890951;28;124094;-91
2023/10/31 14:29:58;;;;;;;1.73;0.97;;;15.40;95.00;;;15.74;56.96;97778.25;4889458;28;116117;-90
2023/10/31 14:32:35;;;;;;;1.33;0.90;;;15.80;95.30;;;15.76;56.89;97778.69;4892076;28;113175;-90